sensor_id;sensor_type;location;lat;lon;timestamp;P1;durP1;ratioP1;P2;durP2;ratioP2
4563;SDS011;2294;51.818;8.484;2023-07-24T00:02:04;5.90;;;1.90;;
4563;SDS011;2294;51.818;8.484;2023-07-24T00:04:33;6.13;;;2.07;;
4563;SDS011;2294;51.818;8.484;2023-07-24T00:07:00;6.50;;;2.10;;
4563;SDS011;2294;51.818;8.484;2023-07-24T00:09:27;4.60;;;1.90;;
4563;SDS011;2294;51.818;8.484;2023-07-24T00:11:55;5.50;;;2.20;;
4563;SDS011;2294;51.818;8.484;2023-07-24T00:14:22;6.47;;;2.37;;
4563;SDS011;2294;51.818;8.484;2023-07-24T00:16:48;12.13;;;2.37;;
4563;SDS011;2294;51.818;8.484;2023-07-24T00:19:16;6.00;;;2.70;;
4563;SDS011;2294;51.818;8.484;2023-07-24T00:21:44;8.33;;;2.07;;
4563;SDS011;2294;51.818;8.484;2023-07-24T00:24:11;6.73;;;2.40;;
4563;SDS011;2294;51.818;8.484;2023-07-24T00:26:38;6.17;;;2.60;;
4563;SDS011;2294;51.818;8.484;2023-07-24T00:29:05;4.63;;;2.10;;
4563;SDS011;2294;51.818;8.484;2023-07-24T00:31:31;5.40;;;2.37;;
4563;SDS011;2294;51.818;8.484;2023-07-24T00:33:58;5.50;;;1.93;;
4563;SDS011;2294;51.818;8.484;2023-07-24T00:36:26;4.73;;;1.97;;
4563;SDS011;2294;51.818;8.484;2023-07-24T00:38:54;4.80;;;2.07;;
4563;SDS011;2294;51.818;8.484;2023-07-24T00:41:21;5.03;;;2.13;;
4563;SDS011;2294;51.818;8.484;2023-07-24T00:43:48;5.43;;;2.33;;
4563;SDS011;2294;51.818;8.484;2023-07-24T00:46:15;5.07;;;2.10;;
4563;SDS011;2294;51.818;8.484;2023-07-24T00:48:42;5.53;;;2.20;;
4563;SDS011;2294;51.818;8.484;2023-07-24T00:51:09;4.97;;;1.67;;
4563;SDS011;2294;51.818;8.484;2023-07-24T00:53:36;7.83;;;2.43;;
4563;SDS011;2294;51.818;8.484;2023-07-24T00:56:05;5.03;;;1.93;;
4563;SDS011;2294;51.818;8.484;2023-07-24T00:58:33;5.33;;;2.33;;
4563;SDS011;2294;51.818;8.484;2023-07-24T01:01:01;10.73;;;2.30;;
4563;SDS011;2294;51.818;8.484;2023-07-24T01:03:31;9.83;;;2.33;;
4563;SDS011;2294;51.818;8.484;2023-07-24T01:06:00;5.83;;;2.50;;
4563;SDS011;2294;51.818;8.484;2023-07-24T01:08:28;5.57;;;2.57;;
4563;SDS011;2294;51.818;8.484;2023-07-24T01:10:55;6.50;;;2.27;;
4563;SDS011;2294;51.818;8.484;2023-07-24T01:13:26;5.57;;;2.33;;
4563;SDS011;2294;51.818;8.484;2023-07-24T01:15:56;5.00;;;1.97;;
4563;SDS011;2294;51.818;8.484;2023-07-24T01:18:29;5.83;;;2.33;;
4563;SDS011;2294;51.818;8.484;2023-07-24T01:20:57;5.80;;;2.40;;
4563;SDS011;2294;51.818;8.484;2023-07-24T01:23:29;7.77;;;2.80;;
4563;SDS011;2294;51.818;8.484;2023-07-24T01:26:22;6.00;;;2.60;;
4563;SDS011;2294;51.818;8.484;2023-07-24T01:28:50;10.13;;;2.83;;
4563;SDS011;2294;51.818;8.484;2023-07-24T01:31:17;5.50;;;2.30;;
4563;SDS011;2294;51.818;8.484;2023-07-24T01:33:44;10.27;;;2.37;;
4563;SDS011;2294;51.818;8.484;2023-07-24T01:36:11;5.70;;;2.87;;
4563;SDS011;2294;51.818;8.484;2023-07-24T01:38:39;6.00;;;2.60;;
4563;SDS011;2294;51.818;8.484;2023-07-24T01:41:07;5.80;;;2.67;;
4563;SDS011;2294;51.818;8.484;2023-07-24T01:43:35;7.87;;;2.70;;
4563;SDS011;2294;51.818;8.484;2023-07-24T01:46:02;5.37;;;2.10;;
4563;SDS011;2294;51.818;8.484;2023-07-24T01:48:29;5.43;;;2.27;;
4563;SDS011;2294;51.818;8.484;2023-07-24T01:50:56;5.60;;;2.70;;
4563;SDS011;2294;51.818;8.484;2023-07-24T01:53:23;7.60;;;2.60;;
4563;SDS011;2294;51.818;8.484;2023-07-24T01:55:50;6.50;;;2.67;;
4563;SDS011;2294;51.818;8.484;2023-07-24T01:58:16;8.93;;;2.80;;
4563;SDS011;2294;51.818;8.484;2023-07-24T02:00:45;5.80;;;2.60;;
4563;SDS011;2294;51.818;8.484;2023-07-24T02:03:11;6.50;;;2.97;;
4563;SDS011;2294;51.818;8.484;2023-07-24T02:05:38;8.30;;;3.20;;
4563;SDS011;2294;51.818;8.484;2023-07-24T02:08:05;9.40;;;2.93;;
4563;SDS011;2294;51.818;8.484;2023-07-24T02:10:32;6.70;;;3.13;;
4563;SDS011;2294;51.818;8.484;2023-07-24T02:13:02;6.50;;;2.73;;
4563;SDS011;2294;51.818;8.484;2023-07-24T02:15:31;6.43;;;3.10;;
4563;SDS011;2294;51.818;8.484;2023-07-24T02:17:59;7.00;;;2.83;;
4563;SDS011;2294;51.818;8.484;2023-07-24T02:20:26;6.87;;;3.50;;
4563;SDS011;2294;51.818;8.484;2023-07-24T02:22:53;6.37;;;2.93;;
4563;SDS011;2294;51.818;8.484;2023-07-24T02:25:20;7.93;;;3.50;;
4563;SDS011;2294;51.818;8.484;2023-07-24T02:27:47;5.50;;;2.73;;
4563;SDS011;2294;51.818;8.484;2023-07-24T02:30:14;6.50;;;2.97;;
4563;SDS011;2294;51.818;8.484;2023-07-24T02:32:41;6.27;;;3.33;;
4563;SDS011;2294;51.818;8.484;2023-07-24T02:35:09;8.10;;;2.70;;
4563;SDS011;2294;51.818;8.484;2023-07-24T02:37:36;10.27;;;3.20;;
4563;SDS011;2294;51.818;8.484;2023-07-24T02:40:03;11.10;;;2.70;;
4563;SDS011;2294;51.818;8.484;2023-07-24T02:42:31;7.03;;;3.43;;
4563;SDS011;2294;51.818;8.484;2023-07-24T02:44:57;9.23;;;3.30;;
4563;SDS011;2294;51.818;8.484;2023-07-24T02:47:24;7.13;;;3.00;;
4563;SDS011;2294;51.818;8.484;2023-07-24T02:49:51;6.30;;;3.33;;
4563;SDS011;2294;51.818;8.484;2023-07-24T02:52:20;8.70;;;3.70;;
4563;SDS011;2294;51.818;8.484;2023-07-24T02:54:46;6.23;;;2.90;;
4563;SDS011;2294;51.818;8.484;2023-07-24T02:57:13;7.33;;;3.00;;
4563;SDS011;2294;51.818;8.484;2023-07-24T02:59:40;7.57;;;3.60;;
4563;SDS011;2294;51.818;8.484;2023-07-24T03:02:07;7.47;;;3.13;;
4563;SDS011;2294;51.818;8.484;2023-07-24T03:04:34;9.67;;;3.47;;
4563;SDS011;2294;51.818;8.484;2023-07-24T03:07:01;6.03;;;2.50;;
4563;SDS011;2294;51.818;8.484;2023-07-24T03:09:29;8.40;;;3.83;;
4563;SDS011;2294;51.818;8.484;2023-07-24T03:11:56;7.40;;;3.20;;
4563;SDS011;2294;51.818;8.484;2023-07-24T03:14:22;6.47;;;3.27;;
4563;SDS011;2294;51.818;8.484;2023-07-24T03:16:49;6.87;;;3.23;;
4563;SDS011;2294;51.818;8.484;2023-07-24T03:19:16;6.73;;;3.00;;
4563;SDS011;2294;51.818;8.484;2023-07-24T03:21:45;6.80;;;2.87;;
4563;SDS011;2294;51.818;8.484;2023-07-24T03:24:12;7.73;;;2.13;;
4563;SDS011;2294;51.818;8.484;2023-07-24T03:26:40;7.03;;;2.93;;
4563;SDS011;2294;51.818;8.484;2023-07-24T03:29:07;10.70;;;2.37;;
4563;SDS011;2294;51.818;8.484;2023-07-24T03:31:34;6.93;;;3.10;;
4563;SDS011;2294;51.818;8.484;2023-07-24T03:34:01;6.10;;;2.43;;
4563;SDS011;2294;51.818;8.484;2023-07-24T03:36:27;10.80;;;2.70;;
4563;SDS011;2294;51.818;8.484;2023-07-24T03:38:54;6.80;;;3.40;;
4563;SDS011;2294;51.818;8.484;2023-07-24T03:41:21;9.03;;;2.30;;
4563;SDS011;2294;51.818;8.484;2023-07-24T03:43:49;8.10;;;2.83;;
4563;SDS011;2294;51.818;8.484;2023-07-24T03:46:16;9.93;;;3.43;;
4563;SDS011;2294;51.818;8.484;2023-07-24T03:48:43;5.87;;;2.80;;
4563;SDS011;2294;51.818;8.484;2023-07-24T03:51:10;7.50;;;3.03;;
4563;SDS011;2294;51.818;8.484;2023-07-24T03:53:37;8.83;;;2.87;;
4563;SDS011;2294;51.818;8.484;2023-07-24T03:56:03;8.73;;;3.20;;
4563;SDS011;2294;51.818;8.484;2023-07-24T03:58:30;7.03;;;3.03;;
4563;SDS011;2294;51.818;8.484;2023-07-24T04:00:59;8.37;;;3.13;;
4563;SDS011;2294;51.818;8.484;2023-07-24T04:03:25;7.80;;;2.70;;
4563;SDS011;2294;51.818;8.484;2023-07-24T04:05:52;7.10;;;3.17;;
4563;SDS011;2294;51.818;8.484;2023-07-24T04:08:19;6.93;;;3.10;;
4563;SDS011;2294;51.818;8.484;2023-07-24T04:10:46;7.07;;;2.70;;
4563;SDS011;2294;51.818;8.484;2023-07-24T04:13:13;7.00;;;3.20;;
4563;SDS011;2294;51.818;8.484;2023-07-24T04:15:40;8.07;;;3.20;;
4563;SDS011;2294;51.818;8.484;2023-07-24T04:18:08;9.70;;;3.30;;
4563;SDS011;2294;51.818;8.484;2023-07-24T04:20:35;6.77;;;2.90;;
4563;SDS011;2294;51.818;8.484;2023-07-24T04:23:02;6.63;;;3.33;;
4563;SDS011;2294;51.818;8.484;2023-07-24T04:25:29;9.43;;;3.50;;
4563;SDS011;2294;51.818;8.484;2023-07-24T04:27:56;7.17;;;2.70;;
4563;SDS011;2294;51.818;8.484;2023-07-24T04:30:23;9.83;;;3.70;;
4563;SDS011;2294;51.818;8.484;2023-07-24T04:32:50;8.90;;;3.20;;
4563;SDS011;2294;51.818;8.484;2023-07-24T04:35:18;6.47;;;3.07;;
4563;SDS011;2294;51.818;8.484;2023-07-24T04:37:45;7.70;;;3.40;;
4563;SDS011;2294;51.818;8.484;2023-07-24T04:40:12;15.30;;;3.93;;
4563;SDS011;2294;51.818;8.484;2023-07-24T04:42:39;8.30;;;3.30;;
4563;SDS011;2294;51.818;8.484;2023-07-24T04:45:06;10.30;;;3.80;;
4563;SDS011;2294;51.818;8.484;2023-07-24T04:47:34;8.57;;;3.47;;
4563;SDS011;2294;51.818;8.484;2023-07-24T04:50:02;8.00;;;3.60;;
4563;SDS011;2294;51.818;8.484;2023-07-24T04:52:30;6.60;;;2.80;;
4563;SDS011;2294;51.818;8.484;2023-07-24T04:54:57;7.10;;;3.37;;
4563;SDS011;2294;51.818;8.484;2023-07-24T04:57:24;8.53;;;3.50;;
4563;SDS011;2294;51.818;8.484;2023-07-24T04:59:51;6.43;;;3.10;;
4563;SDS011;2294;51.818;8.484;2023-07-24T05:02:17;7.00;;;2.80;;
4563;SDS011;2294;51.818;8.484;2023-07-24T05:04:44;12.37;;;3.93;;
4563;SDS011;2294;51.818;8.484;2023-07-24T05:07:11;9.30;;;3.60;;
4563;SDS011;2294;51.818;8.484;2023-07-24T05:09:39;7.90;;;4.10;;
4563;SDS011;2294;51.818;8.484;2023-07-24T05:12:06;8.67;;;3.20;;
4563;SDS011;2294;51.818;8.484;2023-07-24T05:14:33;7.50;;;3.60;;
4563;SDS011;2294;51.818;8.484;2023-07-24T05:17:00;8.20;;;3.73;;
4563;SDS011;2294;51.818;8.484;2023-07-24T05:19:27;13.20;;;3.73;;
4563;SDS011;2294;51.818;8.484;2023-07-24T05:21:54;8.23;;;3.30;;
4563;SDS011;2294;51.818;8.484;2023-07-24T05:24:21;14.33;;;4.70;;
4563;SDS011;2294;51.818;8.484;2023-07-24T05:26:49;7.40;;;3.90;;
4563;SDS011;2294;51.818;8.484;2023-07-24T05:29:16;7.97;;;2.87;;
4563;SDS011;2294;51.818;8.484;2023-07-24T05:31:43;9.07;;;3.17;;
4563;SDS011;2294;51.818;8.484;2023-07-24T05:34:09;9.10;;;3.80;;
4563;SDS011;2294;51.818;8.484;2023-07-24T05:36:36;8.10;;;3.87;;
4563;SDS011;2294;51.818;8.484;2023-07-24T05:39:03;7.53;;;3.77;;
4563;SDS011;2294;51.818;8.484;2023-07-24T05:41:30;6.90;;;3.47;;
4563;SDS011;2294;51.818;8.484;2023-07-24T05:43:58;8.90;;;4.50;;
4563;SDS011;2294;51.818;8.484;2023-07-24T05:46:25;8.00;;;3.20;;
4563;SDS011;2294;51.818;8.484;2023-07-24T05:48:52;13.20;;;4.03;;
4563;SDS011;2294;51.818;8.484;2023-07-24T05:51:19;10.53;;;4.20;;
4563;SDS011;2294;51.818;8.484;2023-07-24T05:53:46;8.40;;;3.33;;
4563;SDS011;2294;51.818;8.484;2023-07-24T05:56:12;7.77;;;3.53;;
4563;SDS011;2294;51.818;8.484;2023-07-24T05:58:39;8.60;;;3.50;;
4563;SDS011;2294;51.818;8.484;2023-07-24T06:01:08;7.73;;;3.40;;
4563;SDS011;2294;51.818;8.484;2023-07-24T06:03:35;9.60;;;3.33;;
4563;SDS011;2294;51.818;8.484;2023-07-24T06:06:04;6.93;;;3.50;;
4563;SDS011;2294;51.818;8.484;2023-07-24T06:08:31;6.33;;;2.97;;
4563;SDS011;2294;51.818;8.484;2023-07-24T06:10:57;9.23;;;3.07;;
4563;SDS011;2294;51.818;8.484;2023-07-24T06:13:24;7.80;;;3.87;;
4563;SDS011;2294;51.818;8.484;2023-07-24T06:15:51;9.47;;;2.87;;
4563;SDS011;2294;51.818;8.484;2023-07-24T06:18:20;8.33;;;3.77;;
4563;SDS011;2294;51.818;8.484;2023-07-24T06:20:47;7.87;;;3.80;;
4563;SDS011;2294;51.818;8.484;2023-07-24T06:23:17;9.37;;;3.53;;
4563;SDS011;2294;51.818;8.484;2023-07-24T06:25:44;11.97;;;3.50;;
4563;SDS011;2294;51.818;8.484;2023-07-24T06:28:11;12.30;;;3.77;;
4563;SDS011;2294;51.818;8.484;2023-07-24T06:30:38;12.23;;;3.70;;
4563;SDS011;2294;51.818;8.484;2023-07-24T06:33:05;12.10;;;3.60;;
4563;SDS011;2294;51.818;8.484;2023-07-24T06:35:33;11.70;;;4.07;;
4563;SDS011;2294;51.818;8.484;2023-07-24T06:38:04;9.00;;;3.17;;
4563;SDS011;2294;51.818;8.484;2023-07-24T06:40:33;7.73;;;3.80;;
4563;SDS011;2294;51.818;8.484;2023-07-24T06:43:00;8.70;;;3.80;;
4563;SDS011;2294;51.818;8.484;2023-07-24T06:45:26;10.63;;;4.10;;
4563;SDS011;2294;51.818;8.484;2023-07-24T06:47:53;9.43;;;4.10;;
4563;SDS011;2294;51.818;8.484;2023-07-24T06:50:20;8.47;;;3.67;;
4563;SDS011;2294;51.818;8.484;2023-07-24T06:52:49;10.93;;;3.97;;
4563;SDS011;2294;51.818;8.484;2023-07-24T06:55:17;14.60;;;6.07;;
4563;SDS011;2294;51.818;8.484;2023-07-24T06:57:44;8.17;;;3.47;;
4563;SDS011;2294;51.818;8.484;2023-07-24T07:00:11;9.90;;;3.73;;
4563;SDS011;2294;51.818;8.484;2023-07-24T07:02:39;9.40;;;4.00;;
4563;SDS011;2294;51.818;8.484;2023-07-24T07:05:09;7.40;;;3.40;;
4563;SDS011;2294;51.818;8.484;2023-07-24T07:07:36;9.80;;;4.57;;
4563;SDS011;2294;51.818;8.484;2023-07-24T07:10:06;8.73;;;4.33;;
4563;SDS011;2294;51.818;8.484;2023-07-24T07:12:33;9.27;;;4.40;;
4563;SDS011;2294;51.818;8.484;2023-07-24T07:15:00;11.87;;;4.10;;
4563;SDS011;2294;51.818;8.484;2023-07-24T07:17:27;9.90;;;4.10;;
4563;SDS011;2294;51.818;8.484;2023-07-24T07:19:54;12.37;;;4.93;;
4563;SDS011;2294;51.818;8.484;2023-07-24T07:22:26;12.13;;;4.50;;
4563;SDS011;2294;51.818;8.484;2023-07-24T07:24:53;8.43;;;3.60;;
4563;SDS011;2294;51.818;8.484;2023-07-24T07:27:21;7.80;;;4.07;;
4563;SDS011;2294;51.818;8.484;2023-07-24T07:29:48;10.20;;;4.40;;
4563;SDS011;2294;51.818;8.484;2023-07-24T07:32:15;10.87;;;4.97;;
4563;SDS011;2294;51.818;8.484;2023-07-24T07:34:42;7.93;;;3.97;;
4563;SDS011;2294;51.818;8.484;2023-07-24T07:37:09;9.57;;;4.60;;
4563;SDS011;2294;51.818;8.484;2023-07-24T07:39:36;10.87;;;4.50;;
4563;SDS011;2294;51.818;8.484;2023-07-24T07:42:03;11.40;;;3.90;;
4563;SDS011;2294;51.818;8.484;2023-07-24T07:44:32;8.90;;;3.90;;
4563;SDS011;2294;51.818;8.484;2023-07-24T11:10:47;7.30;;;3.97;;
4563;SDS011;2294;51.818;8.484;2023-07-24T11:13:15;8.20;;;3.83;;
4563;SDS011;2294;51.818;8.484;2023-07-24T11:15:43;7.63;;;4.37;;
4563;SDS011;2294;51.818;8.484;2023-07-24T11:18:10;6.80;;;3.90;;
4563;SDS011;2294;51.818;8.484;2023-07-24T11:20:38;9.07;;;3.87;;
4563;SDS011;2294;51.818;8.484;2023-07-24T11:23:10;7.13;;;3.70;;
4563;SDS011;2294;51.818;8.484;2023-07-24T11:25:37;7.50;;;3.90;;
4563;SDS011;2294;51.818;8.484;2023-07-24T11:28:05;6.20;;;3.53;;
4563;SDS011;2294;51.818;8.484;2023-07-24T11:30:33;6.70;;;3.20;;
4563;SDS011;2294;51.818;8.484;2023-07-24T11:33:01;10.17;;;3.10;;
4563;SDS011;2294;51.818;8.484;2023-07-24T11:35:30;6.60;;;3.50;;
4563;SDS011;2294;51.818;8.484;2023-07-24T11:37:57;7.83;;;3.30;;
4563;SDS011;2294;51.818;8.484;2023-07-24T11:40:30;7.70;;;3.73;;
4563;SDS011;2294;51.818;8.484;2023-07-24T11:42:58;6.80;;;3.50;;
4563;SDS011;2294;51.818;8.484;2023-07-24T11:45:26;7.87;;;3.97;;
4563;SDS011;2294;51.818;8.484;2023-07-24T11:47:53;8.73;;;3.97;;
4563;SDS011;2294;51.818;8.484;2023-07-24T11:50:21;7.87;;;3.33;;
4563;SDS011;2294;51.818;8.484;2023-07-24T11:52:49;5.90;;;3.30;;
4563;SDS011;2294;51.818;8.484;2023-07-24T11:55:17;5.57;;;2.30;;
4563;SDS011;2294;51.818;8.484;2023-07-24T11:57:54;5.97;;;2.70;;
4563;SDS011;2294;51.818;8.484;2023-07-24T12:00:22;5.37;;;2.83;;
4563;SDS011;2294;51.818;8.484;2023-07-24T12:02:51;5.20;;;2.70;;
4563;SDS011;2294;51.818;8.484;2023-07-24T12:05:18;11.83;;;2.60;;
4563;SDS011;2294;51.818;8.484;2023-07-24T12:07:45;5.97;;;3.03;;
4563;SDS011;2294;51.818;8.484;2023-07-24T12:10:12;6.67;;;2.83;;
4563;SDS011;2294;51.818;8.484;2023-07-24T12:12:40;5.30;;;2.50;;
4563;SDS011;2294;51.818;8.484;2023-07-24T12:15:10;5.80;;;2.93;;
4563;SDS011;2294;51.818;8.484;2023-07-24T12:17:37;5.17;;;3.00;;
4563;SDS011;2294;51.818;8.484;2023-07-24T12:20:06;7.20;;;3.00;;
4563;SDS011;2294;51.818;8.484;2023-07-24T12:22:35;7.83;;;3.60;;
4563;SDS011;2294;51.818;8.484;2023-07-24T12:25:03;8.10;;;2.97;;
4563;SDS011;2294;51.818;8.484;2023-07-24T12:27:30;5.67;;;3.10;;
4563;SDS011;2294;51.818;8.484;2023-07-24T12:29:58;5.77;;;3.10;;
4563;SDS011;2294;51.818;8.484;2023-07-24T12:32:25;7.27;;;3.53;;
4563;SDS011;2294;51.818;8.484;2023-07-24T12:34:52;5.33;;;2.70;;
4563;SDS011;2294;51.818;8.484;2023-07-24T12:37:20;7.50;;;3.37;;
4563;SDS011;2294;51.818;8.484;2023-07-24T12:39:47;7.23;;;3.10;;
4563;SDS011;2294;51.818;8.484;2023-07-24T12:42:15;6.40;;;3.37;;
4563;SDS011;2294;51.818;8.484;2023-07-24T12:44:42;7.27;;;3.43;;
4563;SDS011;2294;51.818;8.484;2023-07-24T12:47:10;6.33;;;3.20;;
4563;SDS011;2294;51.818;8.484;2023-07-24T12:49:37;7.07;;;3.53;;
4563;SDS011;2294;51.818;8.484;2023-07-24T12:52:04;7.80;;;3.23;;
4563;SDS011;2294;51.818;8.484;2023-07-24T12:54:34;7.87;;;3.97;;
4563;SDS011;2294;51.818;8.484;2023-07-24T12:57:01;6.93;;;3.07;;
4563;SDS011;2294;51.818;8.484;2023-07-24T12:59:28;8.67;;;3.97;;
4563;SDS011;2294;51.818;8.484;2023-07-24T13:01:55;7.33;;;4.30;;
4563;SDS011;2294;51.818;8.484;2023-07-24T13:04:22;10.03;;;4.70;;
4563;SDS011;2294;51.818;8.484;2023-07-24T13:06:49;10.97;;;4.80;;
4563;SDS011;2294;51.818;8.484;2023-07-24T13:09:17;8.90;;;4.90;;
4563;SDS011;2294;51.818;8.484;2023-07-24T13:11:45;9.20;;;4.87;;
4563;SDS011;2294;51.818;8.484;2023-07-24T13:14:13;10.27;;;6.20;;
4563;SDS011;2294;51.818;8.484;2023-07-24T13:16:40;10.40;;;6.00;;
4563;SDS011;2294;51.818;8.484;2023-07-24T13:19:08;9.33;;;6.30;;
4563;SDS011;2294;51.818;8.484;2023-07-24T13:21:34;9.77;;;5.90;;
4563;SDS011;2294;51.818;8.484;2023-07-24T13:24:01;12.57;;;6.50;;
4563;SDS011;2294;51.818;8.484;2023-07-24T13:26:29;10.70;;;7.40;;
4563;SDS011;2294;51.818;8.484;2023-07-24T13:28:57;11.03;;;6.60;;
4563;SDS011;2294;51.818;8.484;2023-07-24T13:31:24;11.33;;;6.10;;
4563;SDS011;2294;51.818;8.484;2023-07-24T13:33:53;7.80;;;3.87;;
4563;SDS011;2294;51.818;8.484;2023-07-24T13:36:20;9.77;;;3.17;;
4563;SDS011;2294;51.818;8.484;2023-07-24T13:38:47;6.00;;;2.30;;
4563;SDS011;2294;51.818;8.484;2023-07-24T13:41:15;5.93;;;2.23;;
4563;SDS011;2294;51.818;8.484;2023-07-24T13:43:42;6.60;;;2.23;;
4563;SDS011;2294;51.818;8.484;2023-07-24T13:46:10;5.53;;;2.00;;
4563;SDS011;2294;51.818;8.484;2023-07-24T13:48:37;5.23;;;2.27;;
4563;SDS011;2294;51.818;8.484;2023-07-24T13:51:04;4.83;;;2.20;;
4563;SDS011;2294;51.818;8.484;2023-07-24T13:53:31;5.40;;;2.33;;
4563;SDS011;2294;51.818;8.484;2023-07-24T13:55:58;7.10;;;2.70;;
4563;SDS011;2294;51.818;8.484;2023-07-24T13:58:25;5.37;;;2.20;;
4563;SDS011;2294;51.818;8.484;2023-07-24T14:00:52;5.60;;;2.07;;
4563;SDS011;2294;51.818;8.484;2023-07-24T14:03:20;6.23;;;2.03;;
4563;SDS011;2294;51.818;8.484;2023-07-24T14:05:49;5.80;;;2.13;;
4563;SDS011;2294;51.818;8.484;2023-07-24T14:08:16;5.53;;;2.10;;
4563;SDS011;2294;51.818;8.484;2023-07-24T14:10:43;6.10;;;2.40;;
4563;SDS011;2294;51.818;8.484;2023-07-24T14:13:10;6.33;;;2.23;;
4563;SDS011;2294;51.818;8.484;2023-07-24T14:15:36;6.57;;;2.80;;
4563;SDS011;2294;51.818;8.484;2023-07-24T14:18:03;5.50;;;2.10;;
4563;SDS011;2294;51.818;8.484;2023-07-24T14:20:31;4.47;;;1.90;;
4563;SDS011;2294;51.818;8.484;2023-07-24T14:22:58;5.03;;;2.30;;
4563;SDS011;2294;51.818;8.484;2023-07-24T14:25:25;5.53;;;2.20;;
4563;SDS011;2294;51.818;8.484;2023-07-24T14:27:52;4.40;;;1.70;;
4563;SDS011;2294;51.818;8.484;2023-07-24T14:30:19;8.70;;;1.93;;
4563;SDS011;2294;51.818;8.484;2023-07-24T14:32:46;5.10;;;2.00;;
4563;SDS011;2294;51.818;8.484;2023-07-24T14:35:15;8.30;;;1.83;;
4563;SDS011;2294;51.818;8.484;2023-07-24T14:37:43;8.93;;;1.90;;
4563;SDS011;2294;51.818;8.484;2023-07-24T14:40:10;5.50;;;1.90;;
4563;SDS011;2294;51.818;8.484;2023-07-24T14:42:37;6.27;;;1.50;;
4563;SDS011;2294;51.818;8.484;2023-07-24T14:45:06;5.83;;;1.73;;
4563;SDS011;2294;51.818;8.484;2023-07-24T14:47:33;3.60;;;1.40;;
4563;SDS011;2294;51.818;8.484;2023-07-24T14:50:00;5.20;;;1.50;;
4563;SDS011;2294;51.818;8.484;2023-07-24T14:52:27;5.10;;;1.70;;
4563;SDS011;2294;51.818;8.484;2023-07-24T14:54:56;4.53;;;1.50;;
4563;SDS011;2294;51.818;8.484;2023-07-24T14:57:23;5.97;;;1.90;;
4563;SDS011;2294;51.818;8.484;2023-07-24T14:59:50;9.53;;;2.57;;
4563;SDS011;2294;51.818;8.484;2023-07-24T15:02:17;9.60;;;2.80;;
4563;SDS011;2294;51.818;8.484;2023-07-24T15:04:44;4.23;;;1.70;;
4563;SDS011;2294;51.818;8.484;2023-07-24T15:07:11;4.47;;;2.10;;
4563;SDS011;2294;51.818;8.484;2023-07-24T15:09:38;5.00;;;1.90;;
4563;SDS011;2294;51.818;8.484;2023-07-24T15:12:06;7.03;;;2.10;;
4563;SDS011;2294;51.818;8.484;2023-07-24T15:14:33;4.90;;;2.20;;
4563;SDS011;2294;51.818;8.484;2023-07-24T15:17:00;6.70;;;2.13;;
4563;SDS011;2294;51.818;8.484;2023-07-24T15:19:27;5.67;;;2.00;;
4563;SDS011;2294;51.818;8.484;2023-07-24T15:21:54;9.30;;;2.53;;
4563;SDS011;2294;51.818;8.484;2023-07-24T15:24:21;9.77;;;3.47;;
4563;SDS011;2294;51.818;8.484;2023-07-24T15:26:48;25.73;;;9.23;;
4563;SDS011;2294;51.818;8.484;2023-07-24T15:29:16;5.70;;;2.60;;
4563;SDS011;2294;51.818;8.484;2023-07-24T15:31:43;5.00;;;2.00;;
4563;SDS011;2294;51.818;8.484;2023-07-24T15:34:10;6.20;;;2.43;;
4563;SDS011;2294;51.818;8.484;2023-07-24T15:36:37;4.90;;;2.40;;
4563;SDS011;2294;51.818;8.484;2023-07-24T15:39:04;5.30;;;2.20;;
4563;SDS011;2294;51.818;8.484;2023-07-24T15:41:31;4.67;;;1.80;;
4563;SDS011;2294;51.818;8.484;2023-07-24T15:43:58;5.60;;;2.00;;
4563;SDS011;2294;51.818;8.484;2023-07-24T15:46:26;5.50;;;2.43;;
4563;SDS011;2294;51.818;8.484;2023-07-24T15:48:56;5.30;;;1.87;;
4563;SDS011;2294;51.818;8.484;2023-07-24T15:51:24;8.60;;;2.40;;
4563;SDS011;2294;51.818;8.484;2023-07-24T15:53:51;5.10;;;2.13;;
4563;SDS011;2294;51.818;8.484;2023-07-24T15:56:18;6.27;;;2.13;;
4563;SDS011;2294;51.818;8.484;2023-07-24T15:58:48;6.10;;;1.93;;
4563;SDS011;2294;51.818;8.484;2023-07-24T16:01:16;5.17;;;2.07;;
4563;SDS011;2294;51.818;8.484;2023-07-24T16:03:44;4.43;;;2.00;;
4563;SDS011;2294;51.818;8.484;2023-07-24T16:06:12;5.13;;;2.03;;
4563;SDS011;2294;51.818;8.484;2023-07-24T16:08:40;4.57;;;2.07;;
4563;SDS011;2294;51.818;8.484;2023-07-24T16:11:08;8.37;;;2.43;;
4563;SDS011;2294;51.818;8.484;2023-07-24T16:13:35;7.47;;;2.37;;
4563;SDS011;2294;51.818;8.484;2023-07-24T16:16:02;8.97;;;3.00;;
4563;SDS011;2294;51.818;8.484;2023-07-24T16:18:29;6.00;;;2.73;;
4563;SDS011;2294;51.818;8.484;2023-07-24T16:20:58;5.40;;;2.80;;
4563;SDS011;2294;51.818;8.484;2023-07-24T16:23:25;7.27;;;2.23;;
4563;SDS011;2294;51.818;8.484;2023-07-24T16:25:52;5.07;;;2.40;;
4563;SDS011;2294;51.818;8.484;2023-07-24T16:28:19;6.10;;;2.80;;
4563;SDS011;2294;51.818;8.484;2023-07-24T16:30:46;5.20;;;2.37;;
4563;SDS011;2294;51.818;8.484;2023-07-24T16:33:13;5.93;;;2.70;;
4563;SDS011;2294;51.818;8.484;2023-07-24T16:35:39;5.00;;;2.47;;
4563;SDS011;2294;51.818;8.484;2023-07-24T16:38:08;6.90;;;2.50;;
4563;SDS011;2294;51.818;8.484;2023-07-24T16:40:39;6.47;;;2.70;;
4563;SDS011;2294;51.818;8.484;2023-07-24T16:43:06;6.40;;;2.97;;
4563;SDS011;2294;51.818;8.484;2023-07-24T16:45:32;6.33;;;3.00;;
4563;SDS011;2294;51.818;8.484;2023-07-24T16:47:59;8.93;;;3.50;;
4563;SDS011;2294;51.818;8.484;2023-07-24T16:50:26;9.00;;;3.67;;
4563;SDS011;2294;51.818;8.484;2023-07-24T16:52:54;7.93;;;3.70;;
4563;SDS011;2294;51.818;8.484;2023-07-24T16:55:23;11.17;;;4.10;;
4563;SDS011;2294;51.818;8.484;2023-07-24T16:57:50;9.07;;;4.30;;
4563;SDS011;2294;51.818;8.484;2023-07-24T17:00:17;9.00;;;3.97;;
4563;SDS011;2294;51.818;8.484;2023-07-24T17:02:44;7.47;;;3.90;;
4563;SDS011;2294;51.818;8.484;2023-07-24T17:05:11;6.43;;;3.53;;
4563;SDS011;2294;51.818;8.484;2023-07-24T17:07:38;7.00;;;3.80;;
4563;SDS011;2294;51.818;8.484;2023-07-24T17:10:05;6.90;;;3.63;;
4563;SDS011;2294;51.818;8.484;2023-07-24T17:12:34;7.73;;;3.93;;
4563;SDS011;2294;51.818;8.484;2023-07-24T17:15:01;6.30;;;3.50;;
4563;SDS011;2294;51.818;8.484;2023-07-24T17:17:29;8.40;;;3.70;;
4563;SDS011;2294;51.818;8.484;2023-07-24T17:19:55;6.67;;;3.43;;
4563;SDS011;2294;51.818;8.484;2023-07-24T17:22:22;7.73;;;4.23;;
4563;SDS011;2294;51.818;8.484;2023-07-24T17:24:49;8.53;;;4.50;;
4563;SDS011;2294;51.818;8.484;2023-07-24T17:27:16;7.50;;;3.80;;
4563;SDS011;2294;51.818;8.484;2023-07-24T17:29:45;6.10;;;3.57;;
4563;SDS011;2294;51.818;8.484;2023-07-24T17:32:11;8.30;;;3.80;;
4563;SDS011;2294;51.818;8.484;2023-07-24T17:34:38;7.80;;;3.57;;
4563;SDS011;2294;51.818;8.484;2023-07-24T17:37:06;6.80;;;3.60;;
4563;SDS011;2294;51.818;8.484;2023-07-24T17:39:33;7.10;;;3.20;;
4563;SDS011;2294;51.818;8.484;2023-07-24T17:42:00;7.03;;;3.30;;
4563;SDS011;2294;51.818;8.484;2023-07-24T17:44:26;7.17;;;3.33;;
4563;SDS011;2294;51.818;8.484;2023-07-24T17:46:55;5.87;;;2.50;;
4563;SDS011;2294;51.818;8.484;2023-07-24T17:49:22;6.07;;;2.70;;
4563;SDS011;2294;51.818;8.484;2023-07-24T17:51:49;7.63;;;2.43;;
4563;SDS011;2294;51.818;8.484;2023-07-24T17:54:16;5.17;;;2.10;;
4563;SDS011;2294;51.818;8.484;2023-07-24T17:56:43;6.30;;;3.10;;
4563;SDS011;2294;51.818;8.484;2023-07-24T17:59:09;8.60;;;2.73;;
4563;SDS011;2294;51.818;8.484;2023-07-24T18:01:36;6.43;;;2.30;;
4563;SDS011;2294;51.818;8.484;2023-07-24T18:04:05;8.37;;;2.70;;
4563;SDS011;2294;51.818;8.484;2023-07-24T18:06:33;6.37;;;2.97;;
4563;SDS011;2294;51.818;8.484;2023-07-24T18:09:00;6.03;;;3.10;;
4563;SDS011;2294;51.818;8.484;2023-07-24T18:11:26;8.57;;;3.50;;
4563;SDS011;2294;51.818;8.484;2023-07-24T18:13:53;7.43;;;3.60;;
4563;SDS011;2294;51.818;8.484;2023-07-24T18:16:20;10.20;;;3.97;;
4563;SDS011;2294;51.818;8.484;2023-07-24T18:18:47;8.63;;;4.03;;
4563;SDS011;2294;51.818;8.484;2023-07-24T18:21:15;9.33;;;3.47;;
4563;SDS011;2294;51.818;8.484;2023-07-24T18:23:42;7.43;;;4.00;;
4563;SDS011;2294;51.818;8.484;2023-07-24T18:26:09;6.33;;;3.27;;
4563;SDS011;2294;51.818;8.484;2023-07-24T18:28:36;8.70;;;4.20;;
4563;SDS011;2294;51.818;8.484;2023-07-24T18:31:03;12.33;;;4.83;;
4563;SDS011;2294;51.818;8.484;2023-07-24T18:33:30;10.03;;;4.37;;
4563;SDS011;2294;51.818;8.484;2023-07-24T18:35:59;13.73;;;4.57;;
4563;SDS011;2294;51.818;8.484;2023-07-24T18:38:27;9.03;;;4.83;;